sensor_id;sensor_type;location;lat;lon;timestamp;temperature;humidity
75210;DHT22;63796;53.136;14.882;2024-03-02T00:00:27;9.90;99.90
75210;DHT22;63796;53.136;14.882;2024-03-02T00:03:14;9.90;99.90
75210;DHT22;63796;53.136;14.882;2024-03-02T00:05:41;9.90;99.90
75210;DHT22;63796;53.136;14.882;2024-03-02T00:08:08;10.00;99.90
75210;DHT22;63796;53.136;14.882;2024-03-02T00:10:39;9.90;99.90
75210;DHT22;63796;53.136;14.882;2024-03-02T00:13:07;9.80;99.90
75210;DHT22;63796;53.136;14.882;2024-03-02T00:18:24;9.90;99.90
75210;DHT22;63796;53.136;14.882;2024-03-02T00:20:57;9.90;99.90
75210;DHT22;63796;53.136;14.882;2024-03-02T00:23:29;9.90;99.90
75210;DHT22;63796;53.136;14.882;2024-03-02T00:25:59;10.00;99.90
75210;DHT22;63796;53.136;14.882;2024-03-02T00:28:27;10.00;99.90
75210;DHT22;63796;53.136;14.882;2024-03-02T00:33:27;10.00;99.90
75210;DHT22;63796;53.136;14.882;2024-03-02T00:35:57;10.00;99.90
75210;DHT22;63796;53.136;14.882;2024-03-02T00:38:26;10.00;99.90
75210;DHT22;63796;53.136;14.882;2024-03-02T00:40:53;10.00;99.90
75210;DHT22;63796;53.136;14.882;2024-03-02T00:46:20;10.00;99.90
75210;DHT22;63796;53.136;14.882;2024-03-02T00:48:56;10.00;99.90
75210;DHT22;63796;53.136;14.882;2024-03-02T00:51:25;10.00;99.90
75210;DHT22;63796;53.136;14.882;2024-03-02T00:53:54;10.00;99.90
75210;DHT22;63796;53.136;14.882;2024-03-02T00:56:23;10.00;99.90
75210;DHT22;63796;53.136;14.882;2024-03-02T00:58:51;10.00;99.90
75210;DHT22;63796;53.136;14.882;2024-03-02T01:01:19;9.90;99.90
75210;DHT22;63796;53.136;14.882;2024-03-02T01:03:46;9.90;99.90
75210;DHT22;63796;53.136;14.882;2024-03-02T01:06:13;9.90;99.90
75210;DHT22;63796;53.136;14.882;2024-03-02T01:08:41;9.90;99.90
75210;DHT22;63796;53.136;14.882;2024-03-02T01:11:08;9.80;99.90
75210;DHT22;63796;53.136;14.882;2024-03-02T01:13:35;9.80;99.90
75210;DHT22;63796;53.136;14.882;2024-03-02T01:16:02;9.80;99.90
75210;DHT22;63796;53.136;14.882;2024-03-02T01:18:30;9.80;99.90
75210;DHT22;63796;53.136;14.882;2024-03-02T01:20:57;9.80;99.90
75210;DHT22;63796;53.136;14.882;2024-03-02T01:23:24;9.90;99.90
75210;DHT22;63796;53.136;14.882;2024-03-02T01:25:51;9.90;99.90
75210;DHT22;63796;53.136;14.882;2024-03-02T01:28:18;9.90;99.90
75210;DHT22;63796;53.136;14.882;2024-03-02T01:30:47;9.90;99.90
75210;DHT22;63796;53.136;14.882;2024-03-02T01:33:14;9.90;99.90
75210;DHT22;63796;53.136;14.882;2024-03-02T01:35:43;9.90;99.90
75210;DHT22;63796;53.136;14.882;2024-03-02T01:38:10;9.90;99.90
75210;DHT22;63796;53.136;14.882;2024-03-02T01:40:37;9.90;99.90
75210;DHT22;63796;53.136;14.882;2024-03-02T01:43:04;9.90;99.90
75210;DHT22;63796;53.136;14.882;2024-03-02T01:45:32;9.90;99.90
75210;DHT22;63796;53.136;14.882;2024-03-02T01:47:59;9.90;99.90
75210;DHT22;63796;53.136;14.882;2024-03-02T01:50:31;9.90;99.90
75210;DHT22;63796;53.136;14.882;2024-03-02T01:52:58;9.90;99.90
75210;DHT22;63796;53.136;14.882;2024-03-02T01:55:26;9.80;99.90
75210;DHT22;63796;53.136;14.882;2024-03-02T01:57:55;9.80;99.90
75210;DHT22;63796;53.136;14.882;2024-03-02T02:00:22;9.80;99.90
75210;DHT22;63796;53.136;14.882;2024-03-02T02:02:50;9.80;99.90
75210;DHT22;63796;53.136;14.882;2024-03-02T02:05:18;9.80;99.90
75210;DHT22;63796;53.136;14.882;2024-03-02T02:07:45;9.80;99.90
75210;DHT22;63796;53.136;14.882;2024-03-02T02:10:18;9.80;99.90
75210;DHT22;63796;53.136;14.882;2024-03-02T02:13:11;9.80;99.90
75210;DHT22;63796;53.136;14.882;2024-03-02T02:16:05;9.80;99.90
75210;DHT22;63796;53.136;14.882;2024-03-02T02:19:01;9.80;99.90
75210;DHT22;63796;53.136;14.882;2024-03-02T02:21:55;9.80;99.90
75210;DHT22;63796;53.136;14.882;2024-03-02T02:24:28;9.80;99.90
75210;DHT22;63796;53.136;14.882;2024-03-02T02:27:20;9.80;99.90
75210;DHT22;63796;53.136;14.882;2024-03-02T02:30:13;9.80;99.90
75210;DHT22;63796;53.136;14.882;2024-03-02T02:32:52;9.80;99.90
75210;DHT22;63796;53.136;14.882;2024-03-02T02:35:39;9.90;99.90
75210;DHT22;63796;53.136;14.882;2024-03-02T02:38:33;9.90;99.90
75210;DHT22;63796;53.136;14.882;2024-03-02T02:41:10;9.90;99.90
75210;DHT22;63796;53.136;14.882;2024-03-02T02:44:03;9.90;99.90
75210;DHT22;63796;53.136;14.882;2024-03-02T02:46:57;9.90;99.90
75210;DHT22;63796;53.136;14.882;2024-03-02T02:49:31;10.00;99.90
75210;DHT22;63796;53.136;14.882;2024-03-02T02:52:23;10.00;99.90
75210;DHT22;63796;53.136;14.882;2024-03-02T02:55:18;10.00;99.90
75210;DHT22;63796;53.136;14.882;2024-03-02T02:58:12;10.00;99.90
75210;DHT22;63796;53.136;14.882;2024-03-02T03:01:04;10.00;99.90
75210;DHT22;63796;53.136;14.882;2024-03-02T03:03:58;10.00;99.90
75210;DHT22;63796;53.136;14.882;2024-03-02T03:08:13;10.00;99.90
75210;DHT22;63796;53.136;14.882;2024-03-02T03:12:41;10.10;99.90
75210;DHT22;63796;53.136;14.882;2024-03-02T03:17:02;10.00;99.90
75210;DHT22;63796;53.136;14.882;2024-03-02T03:21:30;10.00;99.90
75210;DHT22;63796;53.136;14.882;2024-03-02T03:25:58;10.00;99.90
75210;DHT22;63796;53.136;14.882;2024-03-02T03:30:26;9.90;99.90
75210;DHT22;63796;53.136;14.882;2024-03-02T03:34:58;10.00;99.90
75210;DHT22;63796;53.136;14.882;2024-03-02T03:39:26;10.00;99.90
75210;DHT22;63796;53.136;14.882;2024-03-02T03:43:54;10.00;99.90
75210;DHT22;63796;53.136;14.882;2024-03-02T03:48:02;10.10;99.90
75210;DHT22;63796;53.136;14.882;2024-03-02T03:52:29;10.10;99.90
75210;DHT22;63796;53.136;14.882;2024-03-02T03:56:57;10.10;99.90
75210;DHT22;63796;53.136;14.882;2024-03-02T04:01:25;10.10;99.90
75210;DHT22;63796;53.136;14.882;2024-03-02T04:05:53;10.10;99.90
75210;DHT22;63796;53.136;14.882;2024-03-02T04:10:21;10.10;99.90
75210;DHT22;63796;53.136;14.882;2024-03-02T04:14:35;10.10;99.90
75210;DHT22;63796;53.136;14.882;2024-03-02T04:18:56;10.10;99.90
75210;DHT22;63796;53.136;14.882;2024-03-02T04:23:10;10.20;99.90
75210;DHT22;63796;53.136;14.882;2024-03-02T04:27:38;10.20;99.90
75210;DHT22;63796;53.136;14.882;2024-03-02T04:32:06;10.20;99.90
75210;DHT22;63796;53.136;14.882;2024-03-02T04:36:35;10.10;99.90
75210;DHT22;63796;53.136;14.882;2024-03-02T04:40:42;10.10;99.90
75210;DHT22;63796;53.136;14.882;2024-03-02T04:45:10;10.10;99.90
75210;DHT22;63796;53.136;14.882;2024-03-02T04:49:38;10.10;99.90
75210;DHT22;63796;53.136;14.882;2024-03-02T04:54:06;10.10;99.90
75210;DHT22;63796;53.136;14.882;2024-03-02T04:58:33;10.10;99.90
75210;DHT22;63796;53.136;14.882;2024-03-02T05:02:54;10.10;99.90
75210;DHT22;63796;53.136;14.882;2024-03-02T05:07:22;10.10;99.90
75210;DHT22;63796;53.136;14.882;2024-03-02T05:11:50;10.10;99.90
75210;DHT22;63796;53.136;14.882;2024-03-02T05:16:04;10.10;99.90
75210;DHT22;63796;53.136;14.882;2024-03-02T05:20:32;10.10;99.90
75210;DHT22;63796;53.136;14.882;2024-03-02T05:25:00;10.00;99.90
75210;DHT22;63796;53.136;14.882;2024-03-02T05:29:21;10.10;99.90
75210;DHT22;63796;53.136;14.882;2024-03-02T05:33:49;10.00;99.90
75210;DHT22;63796;53.136;14.882;2024-03-02T05:38:17;10.10;99.90
75210;DHT22;63796;53.136;14.882;2024-03-02T05:42:25;10.10;99.90
75210;DHT22;63796;53.136;14.882;2024-03-02T05:46:52;10.10;99.90
75210;DHT22;63796;53.136;14.882;2024-03-02T05:51:20;10.20;99.90
75210;DHT22;63796;53.136;14.882;2024-03-02T05:55:34;10.20;99.90
75210;DHT22;63796;53.136;14.882;2024-03-02T06:00:02;10.20;99.90
75210;DHT22;63796;53.136;14.882;2024-03-02T06:04:30;10.20;99.90
75210;DHT22;63796;53.136;14.882;2024-03-02T06:08:51;10.10;99.90
75210;DHT22;63796;53.136;14.882;2024-03-02T06:13:19;10.20;99.90
75210;DHT22;63796;53.136;14.882;2024-03-02T06:17:47;10.20;99.90
75210;DHT22;63796;53.136;14.882;2024-03-02T06:22:15;10.20;99.90
75210;DHT22;63796;53.136;14.882;2024-03-02T06:26:43;10.20;99.90
75210;DHT22;63796;53.136;14.882;2024-03-02T06:31:11;10.20;99.90
75210;DHT22;63796;53.136;14.882;2024-03-02T06:35:39;10.20;99.90
75210;DHT22;63796;53.136;14.882;2024-03-02T06:40:08;10.20;99.90
75210;DHT22;63796;53.136;14.882;2024-03-02T06:44:38;10.20;99.90
75210;DHT22;63796;53.136;14.882;2024-03-02T06:48:46;10.20;99.90
75210;DHT22;63796;53.136;14.882;2024-03-02T06:53:13;10.20;99.90
75210;DHT22;63796;53.136;14.882;2024-03-02T06:57:41;10.20;99.90
75210;DHT22;63796;53.136;14.882;2024-03-02T07:02:02;10.30;99.90
75210;DHT22;63796;53.136;14.882;2024-03-02T07:06:30;10.30;99.90
75210;DHT22;63796;53.136;14.882;2024-03-02T07:10:58;10.30;99.90
75210;DHT22;63796;53.136;14.882;2024-03-02T07:15:26;10.40;99.90
75210;DHT22;63796;53.136;14.882;2024-03-02T07:20:10;10.40;99.90
75210;DHT22;63796;53.136;14.882;2024-03-02T07:24:41;10.40;99.90
75210;DHT22;63796;53.136;14.882;2024-03-02T07:28:58;10.40;99.90
75210;DHT22;63796;53.136;14.882;2024-03-02T07:33:18;10.40;99.90
75210;DHT22;63796;53.136;14.882;2024-03-02T07:37:40;10.40;99.90
75210;DHT22;63796;53.136;14.882;2024-03-02T07:42:08;10.40;99.90
75210;DHT22;63796;53.136;14.882;2024-03-02T07:46:36;10.40;99.90
75210;DHT22;63796;53.136;14.882;2024-03-02T07:51:04;10.40;99.90
75210;DHT22;63796;53.136;14.882;2024-03-02T07:55:32;10.40;99.90
75210;DHT22;63796;53.136;14.882;2024-03-02T08:00:00;10.40;99.90
75210;DHT22;63796;53.136;14.882;2024-03-02T08:04:28;10.60;99.90
75210;DHT22;63796;53.136;14.882;2024-03-02T08:08:56;10.70;99.90
75210;DHT22;63796;53.136;14.882;2024-03-02T08:13:24;10.80;99.90
75210;DHT22;63796;53.136;14.882;2024-03-02T08:17:52;10.90;99.90
75210;DHT22;63796;53.136;14.882;2024-03-02T08:22:20;11.00;99.90
75210;DHT22;63796;53.136;14.882;2024-03-02T08:26:48;11.10;99.90
75210;DHT22;63796;53.136;14.882;2024-03-02T08:31:16;11.30;99.90
75210;DHT22;63796;53.136;14.882;2024-03-02T08:35:44;11.50;99.90
75210;DHT22;63796;53.136;14.882;2024-03-02T08:40:12;11.90;99.90
75210;DHT22;63796;53.136;14.882;2024-03-02T08:44:40;11.90;99.90
75210;DHT22;63796;53.136;14.882;2024-03-02T08:49:01;12.10;99.90
75210;DHT22;63796;53.136;14.882;2024-03-02T08:53:29;12.10;99.90
75210;DHT22;63796;53.136;14.882;2024-03-02T08:57:57;12.10;99.90
75210;DHT22;63796;53.136;14.882;2024-03-02T09:02:04;12.10;99.90
75210;DHT22;63796;53.136;14.882;2024-03-02T09:06:32;12.20;99.90
75210;DHT22;63796;53.136;14.882;2024-03-02T09:11:00;12.20;99.90
75210;DHT22;63796;53.136;14.882;2024-03-02T09:15:28;12.30;99.90
75210;DHT22;63796;53.136;14.882;2024-03-02T09:19:56;12.20;99.90
75210;DHT22;63796;53.136;14.882;2024-03-02T09:24:17;12.20;99.90
75210;DHT22;63796;53.136;14.882;2024-03-02T09:28:52;12.20;99.90
75210;DHT22;63796;53.136;14.882;2024-03-02T09:33:20;12.20;99.90
75210;DHT22;63796;53.136;14.882;2024-03-02T09:37:48;12.10;99.90
75210;DHT22;63796;53.136;14.882;2024-03-02T09:42:16;12.00;99.90
75210;DHT22;63796;53.136;14.882;2024-03-02T09:46:30;12.00;99.90
75210;DHT22;63796;53.136;14.882;2024-03-02T09:50:51;12.00;99.90
75210;DHT22;63796;53.136;14.882;2024-03-02T09:55:13;12.10;99.90
75210;DHT22;63796;53.136;14.882;2024-03-02T09:59:41;12.20;99.90
75210;DHT22;63796;53.136;14.882;2024-03-02T10:04:09;12.00;99.90
75210;DHT22;63796;53.136;14.882;2024-03-02T10:08:43;12.00;99.90
75210;DHT22;63796;53.136;14.882;2024-03-02T10:13:12;12.10;99.90
75210;DHT22;63796;53.136;14.882;2024-03-02T10:17:32;12.10;99.90
75210;DHT22;63796;53.136;14.882;2024-03-02T10:21:40;11.90;99.90
75210;DHT22;63796;53.136;14.882;2024-03-02T10:26:16;12.00;99.90
75210;DHT22;63796;53.136;14.882;2024-03-02T10:30:43;12.00;99.90
75210;DHT22;63796;53.136;14.882;2024-03-02T10:35:11;11.90;99.90
75210;DHT22;63796;53.136;14.882;2024-03-02T10:39:26;11.90;99.90
75210;DHT22;63796;53.136;14.882;2024-03-02T10:43:53;11.90;99.90
75210;DHT22;63796;53.136;14.882;2024-03-02T10:48:01;11.90;99.90
75210;DHT22;63796;53.136;14.882;2024-03-02T10:52:21;12.10;99.90
75210;DHT22;63796;53.136;14.882;2024-03-02T10:56:38;12.00;99.90
75210;DHT22;63796;53.136;14.882;2024-03-02T11:01:05;12.30;99.90
75210;DHT22;63796;53.136;14.882;2024-03-02T11:05:34;12.20;99.90
75210;DHT22;63796;53.136;14.882;2024-03-02T11:10:01;12.30;99.90
75210;DHT22;63796;53.136;14.882;2024-03-02T11:14:30;12.60;99.90
75210;DHT22;63796;53.136;14.882;2024-03-02T11:18:57;12.60;99.90
75210;DHT22;63796;53.136;14.882;2024-03-02T11:23:32;12.50;99.90
75210;DHT22;63796;53.136;14.882;2024-03-02T11:28:00;12.60;99.90
75210;DHT22;63796;53.136;14.882;2024-03-02T11:32:27;12.60;99.90
75210;DHT22;63796;53.136;14.882;2024-03-02T11:36:55;12.80;99.90
75210;DHT22;63796;53.136;14.882;2024-03-02T11:41:23;13.10;99.90
75210;DHT22;63796;53.136;14.882;2024-03-02T11:45:56;13.20;99.90
75210;DHT22;63796;53.136;14.882;2024-03-02T11:54:49;12.60;99.90
75210;DHT22;63796;53.136;14.882;2024-03-02T11:59:17;12.50;99.90
75210;DHT22;63796;53.136;14.882;2024-03-02T12:03:45;12.90;99.90
75210;DHT22;63796;53.136;14.882;2024-03-02T12:08:13;12.90;99.90
75210;DHT22;63796;53.136;14.882;2024-03-02T12:12:42;13.20;99.90
75210;DHT22;63796;53.136;14.882;2024-03-02T12:16:49;13.50;99.90
75210;DHT22;63796;53.136;14.882;2024-03-02T12:21:17;13.40;99.90
75210;DHT22;63796;53.136;14.882;2024-03-02T12:25:45;13.40;99.90
75210;DHT22;63796;53.136;14.882;2024-03-02T12:30:13;13.40;99.90
75210;DHT22;63796;53.136;14.882;2024-03-02T12:34:41;13.90;99.90
75210;DHT22;63796;53.136;14.882;2024-03-02T12:38:55;14.00;99.90
75210;DHT22;63796;53.136;14.882;2024-03-02T12:43:23;14.00;99.90
75210;DHT22;63796;53.136;14.882;2024-03-02T12:47:51;14.10;99.90
75210;DHT22;63796;53.136;14.882;2024-03-02T12:52:19;14.20;99.90
75210;DHT22;63796;53.136;14.882;2024-03-02T12:56:47;13.80;99.90
75210;DHT22;63796;53.136;14.882;2024-03-02T13:01:15;15.00;99.90
75210;DHT22;63796;53.136;14.882;2024-03-02T13:05:47;14.60;99.90
75210;DHT22;63796;53.136;14.882;2024-03-02T13:10:11;14.50;99.90
75210;DHT22;63796;53.136;14.882;2024-03-02T13:14:39;14.10;99.90
75210;DHT22;63796;53.136;14.882;2024-03-02T13:19:13;13.70;99.90
75210;DHT22;63796;53.136;14.882;2024-03-02T13:23:42;14.00;99.90
75210;DHT22;63796;53.136;14.882;2024-03-02T13:28:10;14.00;99.90
75210;DHT22;63796;53.136;14.882;2024-03-02T13:32:38;13.70;99.90
75210;DHT22;63796;53.136;14.882;2024-03-02T13:37:06;13.70;99.90
75210;DHT22;63796;53.136;14.882;2024-03-02T13:41:20;13.90;99.90
75210;DHT22;63796;53.136;14.882;2024-03-02T13:45:48;14.30;99.90
75210;DHT22;63796;53.136;14.882;2024-03-02T13:50:16;14.00;99.90
75210;DHT22;63796;53.136;14.882;2024-03-02T13:54:45;13.50;99.90
75210;DHT22;63796;53.136;14.882;2024-03-02T13:59:12;13.60;99.90
75210;DHT22;63796;53.136;14.882;2024-03-02T14:03:40;13.70;99.90
75210;DHT22;63796;53.136;14.882;2024-03-02T14:08:08;13.50;99.90
75210;DHT22;63796;53.136;14.882;2024-03-02T14:12:36;13.40;99.90
75210;DHT22;63796;53.136;14.882;2024-03-02T14:17:04;13.50;99.90
75210;DHT22;63796;53.136;14.882;2024-03-02T14:21:32;13.60;99.90
75210;DHT22;63796;53.136;14.882;2024-03-02T14:26:00;13.50;99.90
75210;DHT22;63796;53.136;14.882;2024-03-02T14:30:28;13.90;99.90
75210;DHT22;63796;53.136;14.882;2024-03-02T14:35:03;14.10;99.90
75210;DHT22;63796;53.136;14.882;2024-03-02T14:39:31;14.00;99.90
75210;DHT22;63796;53.136;14.882;2024-03-02T14:43:59;13.60;99.90
75210;DHT22;63796;53.136;14.882;2024-03-02T14:48:27;13.40;99.90
75210;DHT22;63796;53.136;14.882;2024-03-02T14:52:55;13.10;99.90
75210;DHT22;63796;53.136;14.882;2024-03-02T14:57:23;13.20;99.90
75210;DHT22;63796;53.136;14.882;2024-03-02T15:01:51;13.30;99.90
75210;DHT22;63796;53.136;14.882;2024-03-02T15:06:19;13.10;99.90
75210;DHT22;63796;53.136;14.882;2024-03-02T15:10:47;13.00;99.90
75210;DHT22;63796;53.136;14.882;2024-03-02T15:15:15;13.00;99.90
75210;DHT22;63796;53.136;14.882;2024-03-02T15:19:43;13.00;99.90
75210;DHT22;63796;53.136;14.882;2024-03-02T15:24:11;12.90;99.90
75210;DHT22;63796;53.136;14.882;2024-03-02T15:28:39;12.80;99.90
75210;DHT22;63796;53.136;14.882;2024-03-02T15:33:07;12.70;99.90
75210;DHT22;63796;53.136;14.882;2024-03-02T15:37:35;12.70;99.90
75210;DHT22;63796;53.136;14.882;2024-03-02T15:42:03;12.70;99.90
75210;DHT22;63796;53.136;14.882;2024-03-02T15:46:31;12.70;99.90
75210;DHT22;63796;53.136;14.882;2024-03-02T15:50:46;12.60;99.90
75210;DHT22;63796;53.136;14.882;2024-03-02T15:55:09;12.60;99.90
75210;DHT22;63796;53.136;14.882;2024-03-02T15:59:24;12.60;99.90
75210;DHT22;63796;53.136;14.882;2024-03-02T16:03:44;12.50;99.90
75210;DHT22;63796;53.136;14.882;2024-03-02T16:08:05;12.40;99.90
75210;DHT22;63796;53.136;14.882;2024-03-02T16:12:33;12.40;99.90
75210;DHT22;63796;53.136;14.882;2024-03-02T16:17:02;12.40;99.90
75210;DHT22;63796;53.136;14.882;2024-03-02T16:21:29;12.30;99.90
75210;DHT22;63796;53.136;14.882;2024-03-02T16:25:50;12.30;99.90
75210;DHT22;63796;53.136;14.882;2024-03-02T16:29:58;12.30;99.90
75210;DHT22;63796;53.136;14.882;2024-03-02T16:34:26;12.20;99.90
75210;DHT22;63796;53.136;14.882;2024-03-02T16:38:33;12.20;99.90
75210;DHT22;63796;53.136;14.882;2024-03-02T16:43:00;12.10;99.90
75210;DHT22;63796;53.136;14.882;2024-03-02T16:47:29;12.10;99.90
75210;DHT22;63796;53.136;14.882;2024-03-02T16:51:50;12.00;99.90
75210;DHT22;63796;53.136;14.882;2024-03-02T16:56:11;12.00;99.90
75210;DHT22;63796;53.136;14.882;2024-03-02T17:00:39;12.10;99.90
75210;DHT22;63796;53.136;14.882;2024-03-02T17:04:46;12.00;99.90
75210;DHT22;63796;53.136;14.882;2024-03-02T17:09:14;12.00;99.90
75210;DHT22;63796;53.136;14.882;2024-03-02T17:13:42;12.00;99.90
75210;DHT22;63796;53.136;14.882;2024-03-02T17:18:10;11.90;99.90
75210;DHT22;63796;53.136;14.882;2024-03-02T17:22:38;11.90;99.90
75210;DHT22;63796;53.136;14.882;2024-03-02T17:27:06;11.90;99.90
75210;DHT22;63796;53.136;14.882;2024-03-02T17:31:34;11.90;99.90
75210;DHT22;63796;53.136;14.882;2024-03-02T17:36:02;11.90;99.90
75210;DHT22;63796;53.136;14.882;2024-03-02T17:40:30;11.90;99.90
75210;DHT22;63796;53.136;14.882;2024-03-02T17:44:58;11.90;99.90
75210;DHT22;63796;53.136;14.882;2024-03-02T17:49:26;11.90;99.90
75210;DHT22;63796;53.136;14.882;2024-03-02T17:53:55;11.80;99.90
75210;DHT22;63796;53.136;14.882;2024-03-02T17:58:23;11.90;99.90
75210;DHT22;63796;53.136;14.882;2024-03-02T18:02:51;11.90;99.90
75210;DHT22;63796;53.136;14.882;2024-03-02T18:07:12;11.90;99.90
75210;DHT22;63796;53.136;14.882;2024-03-02T18:11:40;11.90;99.90
75210;DHT22;63796;53.136;14.882;2024-03-02T18:16:08;11.90;99.90
75210;DHT22;63796;53.136;14.882;2024-03-02T18:20:36;11.90;99.90
75210;DHT22;63796;53.136;14.882;2024-03-02T18:25:04;11.80;99.90
75210;DHT22;63796;53.136;14.882;2024-03-02T18:29:32;11.80;99.90
75210;DHT22;63796;53.136;14.882;2024-03-02T18:34:00;11.80;99.90
75210;DHT22;63796;53.136;14.882;2024-03-02T18:38:28;11.70;99.90
75210;DHT22;63796;53.136;14.882;2024-03-02T18:42:56;11.60;99.90
75210;DHT22;63796;53.136;14.882;2024-03-02T18:47:24;11.50;99.90
75210;DHT22;63796;53.136;14.882;2024-03-02T18:51:52;11.50;99.90
75210;DHT22;63796;53.136;14.882;2024-03-02T18:55:59;11.40;99.90
75210;DHT22;63796;53.136;14.882;2024-03-02T19:00:27;11.30;99.90
75210;DHT22;63796;53.136;14.882;2024-03-02T19:04:35;11.20;99.90
75210;DHT22;63796;53.136;14.882;2024-03-02T19:09:02;11.20;99.90
75210;DHT22;63796;53.136;14.882;2024-03-02T19:13:30;11.10;99.90
75210;DHT22;63796;53.136;14.882;2024-03-02T19:17:58;11.10;99.90
75210;DHT22;63796;53.136;14.882;2024-03-02T19:22:26;11.00;99.90
75210;DHT22;63796;53.136;14.882;2024-03-02T19:26:54;11.00;99.90
75210;DHT22;63796;53.136;14.882;2024-03-02T19:31:22;11.00;99.90
75210;DHT22;63796;53.136;14.882;2024-03-02T19:35:50;10.80;99.90
75210;DHT22;63796;53.136;14.882;2024-03-02T19:40:18;10.70;99.90
75210;DHT22;63796;53.136;14.882;2024-03-02T19:44:40;10.70;99.90
75210;DHT22;63796;53.136;14.882;2024-03-02T19:48:40;10.60;99.90
75210;DHT22;63796;53.136;14.882;2024-03-02T19:52:41;10.60;99.90
75210;DHT22;63796;53.136;14.882;2024-03-02T19:56:42;10.60;99.90
75210;DHT22;63796;53.136;14.882;2024-03-02T20:00:43;10.60;99.90
75210;DHT22;63796;53.136;14.882;2024-03-02T20:04:44;10.50;99.90
75210;DHT22;63796;53.136;14.882;2024-03-02T20:08:45;10.40;99.90
75210;DHT22;63796;53.136;14.882;2024-03-02T20:12:45;10.50;99.90
75210;DHT22;63796;53.136;14.882;2024-03-02T20:16:46;10.50;99.90
75210;DHT22;63796;53.136;14.882;2024-03-02T20:20:47;10.40;99.90
75210;DHT22;63796;53.136;14.882;2024-03-02T20:24:48;10.40;99.90
75210;DHT22;63796;53.136;14.882;2024-03-02T20:28:49;10.20;99.90
75210;DHT22;63796;53.136;14.882;2024-03-02T20:32:49;10.10;99.90
75210;DHT22;63796;53.136;14.882;2024-03-02T20:36:50;10.10;99.90
75210;DHT22;63796;53.136;14.882;2024-03-02T20:40:51;10.00;99.90
75210;DHT22;63796;53.136;14.882;2024-03-02T20:44:55;10.10;99.90
75210;DHT22;63796;53.136;14.882;2024-03-02T20:48:56;10.00;99.90
75210;DHT22;63796;53.136;14.882;2024-03-02T20:52:56;10.00;99.90
75210;DHT22;63796;53.136;14.882;2024-03-02T20:57:04;10.00;99.90
75210;DHT22;63796;53.136;14.882;2024-03-02T21:01:11;10.00;99.90
75210;DHT22;63796;53.136;14.882;2024-03-02T21:05:38;10.00;99.90
75210;DHT22;63796;53.136;14.882;2024-03-02T21:10:07;10.00;99.90
75210;DHT22;63796;53.136;14.882;2024-03-02T21:14:28;10.10;99.90
75210;DHT22;63796;53.136;14.882;2024-03-02T21:18:56;10.10;99.90
75210;DHT22;63796;53.136;14.882;2024-03-02T21:23:24;10.20;99.90
75210;DHT22;63796;53.136;14.882;2024-03-02T21:27:54;10.20;99.90
75210;DHT22;63796;53.136;14.882;2024-03-02T21:32:22;10.30;99.90
75210;DHT22;63796;53.136;14.882;2024-03-02T21:36:50;10.30;99.90
75210;DHT22;63796;53.136;14.882;2024-03-02T21:41:18;10.30;99.90
75210;DHT22;63796;53.136;14.882;2024-03-02T21:45:46;10.20;99.90
75210;DHT22;63796;53.136;14.882;2024-03-02T21:50:14;10.20;99.90
75210;DHT22;63796;53.136;14.882;2024-03-02T21:54:42;10.10;99.90
75210;DHT22;63796;53.136;14.882;2024-03-02T21:59:10;10.10;99.90
75210;DHT22;63796;53.136;14.882;2024-03-02T22:03:17;10.10;99.90
75210;DHT22;63796;53.136;14.882;2024-03-02T22:07:38;10.00;99.90
75210;DHT22;63796;53.136;14.882;2024-03-02T22:11:59;10.00;99.90
75210;DHT22;63796;53.136;14.882;2024-03-02T22:16:27;10.00;99.90
75210;DHT22;63796;53.136;14.882;2024-03-02T22:20:55;9.90;99.90
75210;DHT22;63796;53.136;14.882;2024-03-02T22:25:23;9.90;99.90
75210;DHT22;63796;53.136;14.882;2024-03-02T22:29:51;9.90;99.90
75210;DHT22;63796;53.136;14.882;2024-03-02T22:33:58;9.90;99.90
75210;DHT22;63796;53.136;14.882;2024-03-02T22:38:26;9.80;99.90
75210;DHT22;63796;53.136;14.882;2024-03-02T22:42:54;9.90;99.90
75210;DHT22;63796;53.136;14.882;2024-03-02T22:47:22;9.90;99.90
75210;DHT22;63796;53.136;14.882;2024-03-02T22:51:43;9.80;99.90
75210;DHT22;63796;53.136;14.882;2024-03-02T22:55:57;9.80;99.90
75210;DHT22;63796;53.136;14.882;2024-03-02T23:03:39;9.90;99.90
75210;DHT22;63796;53.136;14.882;2024-03-02T23:06:06;9.80;99.90
75210;DHT22;63796;53.136;14.882;2024-03-02T23:08:34;9.70;99.90
75210;DHT22;63796;53.136;14.882;2024-03-02T23:11:02;9.80;99.90
75210;DHT22;63796;53.136;14.882;2024-03-02T23:13:30;9.70;99.90
75210;DHT22;63796;53.136;14.882;2024-03-02T23:15:57;9.70;99.90
75210;DHT22;63796;53.136;14.882;2024-03-02T23:18:25;9.70;99.90
75210;DHT22;63796;53.136;14.882;2024-03-02T23:20:51;9.60;99.90
75210;DHT22;63796;53.136;14.882;2024-03-02T23:23:18;9.70;99.90
75210;DHT22;63796;53.136;14.882;2024-03-02T23:25:45;9.70;99.90
75210;DHT22;63796;53.136;14.882;2024-03-02T23:28:13;9.80;99.90
75210;DHT22;63796;53.136;14.882;2024-03-02T23:30:39;9.70;99.90
75210;DHT22;63796;53.136;14.882;2024-03-02T23:33:06;9.70;99.90
75210;DHT22;63796;53.136;14.882;2024-03-02T23:35:33;9.70;99.90
75210;DHT22;63796;53.136;14.882;2024-03-02T23:37:59;9.70;99.90
75210;DHT22;63796;53.136;14.882;2024-03-02T23:40:26;9.60;99.90
75210;DHT22;63796;53.136;14.882;2024-03-02T23:43:17;9.60;99.90
75210;DHT22;63796;53.136;14.882;2024-03-02T23:45:44;9.60;99.90
75210;DHT22;63796;53.136;14.882;2024-03-02T23:48:11;9.60;99.90
75210;DHT22;63796;53.136;14.882;2024-03-02T23:50:38;9.60;99.90
75210;DHT22;63796;53.136;14.882;2024-03-02T23:53:05;9.60;99.90
75210;DHT22;63796;53.136;14.882;2024-03-02T23:55:32;9.60;99.90
75210;DHT22;63796;53.136;14.882;2024-03-02T23:58:17;9.50;99.90
